Time,TemperatureF,DewpointF,PressureIn,WindDirection,WindDirectionDegrees,WindSpeedMPH,WindSpeedGustMPH,Humidity,HourlyPrecipIn,Conditions,Clouds,dailyrainin,SoftwareType,DateUTC
2013-05-13 00:05:00,73.8,73.3,0.00,North,0,0.0,0.0,98,0.00,,,-99.99,Homeseer,2013-05-13 04:05:00,
2013-05-13 00:15:00,73.6,73.1,0.00,WNW,297,0.0,0.0,98,0.00,,,-99.99,Homeseer,2013-05-13 04:15:00,
2013-05-13 00:25:00,73.9,73.4,0.00,West,270,0.0,0.0,98,0.00,,,-99.99,Homeseer,2013-05-13 04:25:00,
2013-05-13 00:35:00,73.8,73.3,0.00,WSW,247,0.0,0.0,98,0.00,,,-99.99,Homeseer,2013-05-13 04:35:00,
2013-05-13 00:45:00,73.9,73.4,0.00,WSW,247,0.0,0.0,98,0.00,,,-99.99,Homeseer,2013-05-13 04:45:00,
2013-05-13 00:55:00,73.8,73.3,0.00,WNW,297,0.0,0.0,98,0.00,,,-99.99,Homeseer,2013-05-13 04:55:00,
2013-05-13 01:05:00,73.8,73.3,0.00,West,270,0.0,0.0,98,0.00,,,-99.99,Homeseer,2013-05-13 05:05:00,
2013-05-13 01:15:00,73.8,73.3,0.00,WNW,297,0.0,0.0,98,0.00,,,-99.99,Homeseer,2013-05-13 05:15:00,
2013-05-13 01:25:00,73.8,73.3,0.00,WNW,297,0.0,0.0,98,0.00,,,-99.99,Homeseer,2013-05-13 05:25:00,
2013-05-13 01:35:00,73.8,73.3,0.00,WNW,297,0.0,0.0,98,0.00,,,-99.99,Homeseer,2013-05-13 05:35:00,
2013-05-13 01:45:00,73.6,73.1,0.00,WNW,297,0.0,0.0,98,0.00,,,-99.99,Homeseer,2013-05-13 05:45:00,
2013-05-13 01:55:00,73.4,72.9,0.00,WSW,247,0.0,0.0,98,0.00,,,-99.99,Homeseer,2013-05-13 05:55:00,
2013-05-13 02:05:00,73.6,73.1,0.00,WNW,297,0.9,0.0,98,0.00,,,-99.99,Homeseer,2013-05-13 06:05:00,
2013-05-13 02:15:00,73.6,73.1,0.00,WNW,297,0.0,0.0,98,0.00,,,-99.99,Homeseer,2013-05-13 06:15:00,
2013-05-13 02:25:00,73.8,73.3,0.00,WNW,297,0.0,0.0,98,0.00,,,-99.99,Homeseer,2013-05-13 06:25:00,
2013-05-13 02:35:00,73.8,73.3,0.00,WNW,297,0.0,0.0,98,0.00,,,-99.99,Homeseer,2013-05-13 06:35:00,
2013-05-13 02:45:00,73.4,72.9,0.00,WNW,297,0.0,0.0,98,0.00,,,-99.99,Homeseer,2013-05-13 06:45:00,
2013-05-13 02:55:00,73.0,72.5,0.00,WNW,297,0.0,0.0,98,0.00,,,-99.99,Homeseer,2013-05-13 06:55:00,
2013-05-13 03:05:00,73.0,72.5,0.00,WNW,297,0.0,0.0,98,0.00,,,-99.99,Homeseer,2013-05-13 07:05:00,
2013-05-13 03:15:00,73.0,72.5,0.00,WNW,297,0.0,0.0,98,0.00,,,-99.99,Homeseer,2013-05-13 07:15:00,
2013-05-13 03:25:00,73.0,72.5,0.00,WNW,297,0.0,0.0,98,0.00,,,-99.99,Homeseer,2013-05-13 07:25:00,
2013-05-13 03:35:00,73.0,72.5,0.00,WNW,297,0.0,0.0,98,0.00,,,-99.99,Homeseer,2013-05-13 07:35:00,
2013-05-13 03:45:00,72.9,72.4,0.00,WSW,247,0.0,0.0,98,0.00,,,-99.99,Homeseer,2013-05-13 07:45:00,
2013-05-13 03:55:00,72.9,72.4,0.00,WNW,297,0.0,0.0,98,0.00,,,-99.99,Homeseer,2013-05-13 07:55:00,
2013-05-13 04:05:00,73.0,72.5,0.00,WNW,297,0.0,0.0,98,0.00,,,-99.99,Homeseer,2013-05-13 08:05:00,
2013-05-13 04:15:00,73.0,72.5,0.00,WNW,297,0.0,0.0,98,0.00,,,-99.99,Homeseer,2013-05-13 08:15:00,
2013-05-13 04:25:00,73.4,72.9,0.00,NW,315,0.0,0.0,98,0.00,,,-99.99,Homeseer,2013-05-13 08:25:00,
2013-05-13 04:35:00,73.0,72.5,0.00,West,270,0.0,0.0,98,0.00,,,-99.99,Homeseer,2013-05-13 08:35:00,
2013-05-13 04:45:00,73.0,72.5,0.00,WSW,247,0.0,0.0,98,0.00,,,-99.99,Homeseer,2013-05-13 08:45:00,
2013-05-13 04:55:00,73.2,72.7,0.00,WNW,297,0.0,0.0,98,0.00,,,-99.99,Homeseer,2013-05-13 08:55:00,
2013-05-13 05:05:00,73.2,72.7,0.00,WNW,297,0.0,0.0,98,0.00,,,-99.99,Homeseer,2013-05-13 09:05:00,
2013-05-13 05:16:00,73.0,72.5,0.00,WNW,297,0.0,0.0,98,0.00,,,-99.99,Homeseer,2013-05-13 09:16:00,
2013-05-13 05:26:00,72.7,72.2,0.00,WNW,297,0.0,0.0,98,0.00,,,-99.99,Homeseer,2013-05-13 09:26:00,
2013-05-13 05:36:00,72.9,72.4,0.00,WNW,297,0.0,0.0,98,0.00,,,-99.99,Homeseer,2013-05-13 09:36:00,
2013-05-13 05:45:00,73.0,72.5,0.00,WNW,297,0.0,0.0,98,0.00,,,-99.99,Homeseer,2013-05-13 09:45:00,
2013-05-13 05:55:00,73.2,72.7,0.00,WNW,297,0.0,0.0,98,0.00,,,-99.99,Homeseer,2013-05-13 09:55:00,
2013-05-13 06:05:00,73.0,72.5,0.00,WNW,297,0.0,0.0,98,0.00,,,-99.99,Homeseer,2013-05-13 10:05:00,
2013-05-13 06:15:00,73.0,72.5,0.00,North,0,0.0,2.0,98,0.00,,,-99.99,Homeseer,2013-05-13 10:15:00,
2013-05-13 06:25:00,72.9,72.4,0.00,North,0,0.0,0.0,98,0.00,,,-99.99,Homeseer,2013-05-13 10:25:00,
2013-05-13 06:35:00,73.2,72.7,0.00,WNW,297,0.0,0.0,98,0.00,,,-99.99,Homeseer,2013-05-13 10:35:00,
2013-05-13 06:45:00,73.0,72.5,0.00,WNW,297,0.0,0.0,98,0.00,,,-99.99,Homeseer,2013-05-13 10:45:00,
2013-05-13 06:55:00,73.2,72.7,0.00,West,270,0.0,0.0,98,0.00,,,-99.99,Homeseer,2013-05-13 10:55:00,
2013-05-13 07:05:00,73.4,72.9,0.00,West,270,0.0,0.0,98,0.00,,,-99.99,Homeseer,2013-05-13 11:05:00,
2013-05-13 07:15:00,73.6,73.1,0.00,WSW,247,0.0,0.0,98,0.00,,,-99.99,Homeseer,2013-05-13 11:15:00,
2013-05-13 07:25:00,74.1,73.6,0.00,WNW,297,0.0,0.0,98,0.00,,,-99.99,Homeseer,2013-05-13 11:25:00,
2013-05-13 07:35:00,74.1,73.6,0.00,WNW,297,0.0,0.0,98,0.00,,,-99.99,Homeseer,2013-05-13 11:35:00,
2013-05-13 07:45:00,74.5,74.0,0.00,WNW,297,0.0,0.0,98,0.00,,,-99.99,Homeseer,2013-05-13 11:45:00,
2013-05-13 07:55:00,74.7,74.2,0.00,NW,315,2.7,2.9,98,0.00,,,-99.99,Homeseer,2013-05-13 11:55:00,
2013-05-13 08:05:00,75.2,74.7,0.00,NW,315,2.2,2.9,98,0.00,,,-99.99,Homeseer,2013-05-13 12:05:00,
2013-05-13 08:15:00,75.4,74.9,0.00,West,270,3.1,3.1,98,0.00,,,-99.99,Homeseer,2013-05-13 12:15:00,
2013-05-13 08:25:00,76.1,75.6,0.00,NW,315,3.4,3.4,98,0.00,,,-99.99,Homeseer,2013-05-13 12:25:00,
2013-05-13 08:35:00,76.5,76.0,0.00,North,0,3.6,4.7,98,0.00,,,-99.99,Homeseer,2013-05-13 12:35:00,
2013-05-13 08:45:00,77.2,75.7,0.00,NW,315,3.6,4.9,94,0.00,,,-99.99,Homeseer,2013-05-13 12:45:00,
2013-05-13 08:55:00,77.2,75.2,0.00,NNE,22,2.7,2.7,92,0.00,,,-99.99,Homeseer,2013-05-13 12:55:00,
2013-05-13 09:05:00,78.1,75.8,0.00,North,0,2.0,3.1,91,0.00,,,-99.99,Homeseer,2013-05-13 13:05:00,
2013-05-13 09:15:00,78.1,74.8,0.00,North,0,2.0,2.5,87,0.00,,,-99.99,Homeseer,2013-05-13 13:15:00,
2013-05-13 09:25:00,78.8,73.5,0.00,North,0,4.7,4.7,80,0.00,,,-99.99,Homeseer,2013-05-13 13:25:00,
2013-05-13 09:35:00,79.3,71.2,0.00,North,0,3.4,6.0,71,0.00,,,-99.99,Homeseer,2013-05-13 13:35:00,
2013-05-13 09:45:00,80.2,72.1,0.00,North,0,4.9,4.9,71,0.00,,,-99.99,Homeseer,2013-05-13 13:45:00,
2013-05-13 09:55:00,79.9,70.8,0.00,North,0,3.6,4.7,68,0.00,,,-99.99,Homeseer,2013-05-13 13:55:00,
2013-05-13 10:05:00,80.2,70.4,0.00,North,0,4.3,4.3,66,0.00,,,-99.99,Homeseer,2013-05-13 14:05:00,
2013-05-13 10:15:00,81.0,71.5,0.00,WNW,297,4.5,5.8,67,0.00,,,-99.99,Homeseer,2013-05-13 14:15:00,
2013-05-13 10:25:00,81.5,70.9,0.00,North,0,4.3,4.3,64,0.00,,,-99.99,Homeseer,2013-05-13 14:25:00,
2013-05-13 10:35:00,81.7,70.7,0.00,North,0,2.9,3.4,63,0.00,,,-99.99,Homeseer,2013-05-13 14:35:00,
2013-05-13 10:45:00,82.4,70.2,0.00,North,0,3.6,3.6,60,0.00,,,-99.99,Homeseer,2013-05-13 14:45:00,
2013-05-13 10:55:00,82.6,69.6,0.00,North,0,5.6,5.6,58,0.00,,,-99.99,Homeseer,2013-05-13 14:55:00,
2013-05-13 11:05:00,82.6,67.6,0.00,North,0,6.0,6.0,53,0.00,,,-99.99,Homeseer,2013-05-13 15:05:00,
2013-05-13 11:15:00,83.7,66.8,0.00,North,0,1.3,3.6,49,0.00,,,-99.99,Homeseer,2013-05-13 15:15:00,
2013-05-13 11:25:00,84.4,66.5,0.00,NW,315,1.3,0.0,47,0.00,,,-99.99,Homeseer,2013-05-13 15:25:00,
2013-05-13 11:35:00,84.9,66.0,0.00,WNW,297,0.0,0.0,45,0.00,,,-99.99,Homeseer,2013-05-13 15:35:00,
2013-05-13 11:45:00,85.8,66.3,0.00,North,0,0.9,0.0,44,0.00,,,-99.99,Homeseer,2013-05-13 15:45:00,
2013-05-13 11:55:00,86.0,65.4,0.00,North,0,1.1,1.1,42,0.00,,,-99.99,Homeseer,2013-05-13 15:55:00,
2013-05-13 12:04:00,86.4,64.7,0.00,NW,315,1.1,1.3,40,0.00,,,-99.99,Homeseer,2013-05-13 16:04:00,
2013-05-13 12:16:00,87.1,64.2,0.00,WNW,297,0.0,0.0,38,0.00,,,-99.99,Homeseer,2013-05-13 16:16:00,
2013-05-13 12:26:00,87.1,64.8,0.00,WNW,297,2.2,4.9,39,0.00,,,-99.99,Homeseer,2013-05-13 16:26:00,
2013-05-13 12:36:00,87.1,66.9,0.00,South,180,2.2,4.3,43,0.00,,,-99.99,Homeseer,2013-05-13 16:36:00,
2013-05-13 12:46:00,86.7,67.1,0.00,ESE,112,4.9,4.9,44,0.00,,,-99.99,Homeseer,2013-05-13 16:46:00,
2013-05-13 12:55:00,85.3,66.8,0.00,South,180,4.7,5.8,46,0.00,,,-99.99,Homeseer,2013-05-13 16:55:00,
2013-05-13 13:05:00,85.1,66.7,0.00,SSE,157,2.9,2.9,46,0.00,,,-99.99,Homeseer,2013-05-13 17:05:00,
2013-05-13 13:15:00,84.9,65.5,0.00,North,0,3.4,3.4,44,0.00,,,-99.99,Homeseer,2013-05-13 17:15:00,
2013-05-13 13:25:00,85.8,67.8,0.00,SSE,157,3.1,4.0,47,0.00,,,-99.99,Homeseer,2013-05-13 17:25:00,
2013-05-13 13:35:00,85.5,67.0,0.00,North,0,3.8,3.8,46,0.00,,,-99.99,Homeseer,2013-05-13 17:35:00,
2013-05-13 13:45:00,84.9,67.4,0.00,South,180,2.9,2.9,48,0.00,,,-99.99,Homeseer,2013-05-13 17:45:00,
2013-05-13 13:55:00,84.6,66.7,0.00,South,180,2.5,3.4,47,0.00,,,-99.99,Homeseer,2013-05-13 17:55:00,
2013-05-13 14:05:00,84.2,67.3,0.00,ESE,112,5.6,6.9,49,0.00,,,-99.99,Homeseer,2013-05-13 18:05:00,
2013-05-13 14:15:00,83.7,67.7,0.00,SE,135,3.8,3.8,51,0.00,,,-99.99,Homeseer,2013-05-13 18:15:00,
2013-05-13 14:25:00,83.5,68.0,0.00,North,0,2.5,3.6,52,0.00,,,-99.99,Homeseer,2013-05-13 18:25:00,
2013-05-13 14:35:00,82.8,67.8,0.00,SSE,157,2.0,2.0,53,0.00,,,-99.99,Homeseer,2013-05-13 18:35:00,
2013-05-13 14:45:00,83.1,67.2,0.00,North,0,2.9,0.0,51,0.00,,,-99.99,Homeseer,2013-05-13 18:45:00,
2013-05-13 14:55:00,83.5,68.0,0.00,SSE,157,2.5,2.5,52,0.00,,,-99.99,Homeseer,2013-05-13 18:55:00,
2013-05-13 15:05:00,83.5,68.0,0.00,SE,135,4.5,4.5,52,0.00,,,-99.99,Homeseer,2013-05-13 19:05:00,
2013-05-13 15:15:00,83.3,68.2,0.00,ENE,67,1.3,0.0,53,0.00,,,-99.99,Homeseer,2013-05-13 19:15:00,
2013-05-13 15:25:00,85.1,65.7,0.00,North,0,3.4,5.4,44,0.00,,,-99.99,Homeseer,2013-05-13 19:25:00,
2013-05-13 15:35:00,86.0,64.4,0.00,North,0,4.7,10.1,40,0.00,,,-99.99,Homeseer,2013-05-13 19:35:00,
2013-05-13 15:45:00,86.2,64.0,0.00,North,0,8.7,8.7,39,0.00,,,-99.99,Homeseer,2013-05-13 19:45:00,
2013-05-13 15:55:00,86.7,64.4,0.00,North,0,7.4,7.4,39,0.00,,,-99.99,Homeseer,2013-05-13 19:55:00,
2013-05-13 16:05:00,86.0,62.6,0.00,ESE,112,4.5,5.6,37,0.00,,,-99.99,Homeseer,2013-05-13 20:05:00,
2013-05-13 16:15:00,85.8,62.5,0.00,NNE,22,10.7,10.7,37,0.00,,,-99.99,Homeseer,2013-05-13 20:15:00,
2013-05-13 16:25:00,86.2,63.4,0.00,North,0,9.0,9.0,38,0.00,,,-99.99,Homeseer,2013-05-13 20:25:00,
2013-05-13 16:35:00,85.8,63.6,0.00,North,0,9.0,9.0,39,0.00,,,-99.99,Homeseer,2013-05-13 20:35:00,
2013-05-13 16:45:00,85.3,63.2,0.00,North,0,5.4,5.4,39,0.00,,,-99.99,Homeseer,2013-05-13 20:45:00,
2013-05-13 16:55:00,85.5,62.8,0.00,North,0,4.3,6.5,38,0.00,,,-99.99,Homeseer,2013-05-13 20:55:00,
2013-05-13 17:05:00,85.6,64.0,0.00,North,0,7.6,9.8,40,0.00,,,-99.99,Homeseer,2013-05-13 21:05:00,
2013-05-13 17:15:00,85.5,62.8,0.00,North,0,6.5,6.5,38,0.00,,,-99.99,Homeseer,2013-05-13 21:15:00,
2013-05-13 17:25:00,84.9,62.3,0.00,North,0,6.7,7.4,38,0.00,,,-99.99,Homeseer,2013-05-13 21:25:00,
2013-05-13 17:35:00,84.9,62.3,0.00,NNE,22,4.5,4.5,38,0.00,,,-99.99,Homeseer,2013-05-13 21:35:00,
2013-05-13 17:45:00,83.8,65.5,0.00,ESE,112,6.0,6.0,46,0.00,,,-99.99,Homeseer,2013-05-13 21:45:00,
2013-05-13 17:55:00,81.5,67.8,0.00,ENE,67,5.8,7.4,56,0.00,,,-99.99,Homeseer,2013-05-13 21:55:00,
2013-05-13 18:05:00,81.5,68.2,0.00,North,0,5.8,5.8,57,0.00,,,-99.99,Homeseer,2013-05-13 22:05:00,
2013-05-13 18:15:00,80.4,68.8,0.00,East,90,7.2,7.2,61,0.00,,,-99.99,Homeseer,2013-05-13 22:15:00,
2013-05-13 18:25:00,79.9,68.7,0.00,ESE,112,4.5,4.5,62,0.00,,,-99.99,Homeseer,2013-05-13 22:25:00,
2013-05-13 18:35:00,79.5,68.3,0.00,ESE,112,4.0,6.3,62,0.00,,,-99.99,Homeseer,2013-05-13 22:35:00,
2013-05-13 18:45:00,79.0,67.5,0.00,East,90,4.0,7.6,61,0.00,,,-99.99,Homeseer,2013-05-13 22:45:00,
2013-05-13 18:54:00,78.8,67.3,0.00,East,90,4.0,4.0,61,0.00,,,-99.99,Homeseer,2013-05-13 22:54:00,
2013-05-13 19:04:00,78.6,67.5,0.00,NNE,22,4.0,5.4,62,0.00,,,-99.99,Homeseer,2013-05-13 23:04:00,
2013-05-13 19:16:00,78.1,66.6,0.00,North,0,5.8,5.8,61,0.00,,,-99.99,Homeseer,2013-05-13 23:16:00,
2013-05-13 19:26:00,77.9,66.4,0.00,North,0,5.4,5.4,61,0.00,,,-99.99,Homeseer,2013-05-13 23:26:00,
2013-05-13 19:36:00,77.9,66.1,0.00,NNE,22,5.8,8.1,60,0.00,,,-99.99,Homeseer,2013-05-13 23:36:00,
2013-05-13 19:46:00,77.9,65.7,0.00,East,90,2.9,5.4,59,0.00,,,-99.99,Homeseer,2013-05-13 23:46:00,
2013-05-13 19:55:00,77.7,65.1,0.00,ENE,67,4.0,4.0,58,0.00,,,-99.99,Homeseer,2013-05-13 23:55:00,
2013-05-13 20:05:00,77.5,64.6,0.00,North,0,3.1,3.1,57,0.00,,,-99.99,Homeseer,2013-05-14 00:05:00,
2013-05-13 20:15:00,77.5,65.7,0.00,NE,45,3.4,6.3,60,0.00,,,-99.99,Homeseer,2013-05-14 00:15:00,
2013-05-13 20:25:00,77.5,64.9,0.00,NNE,22,2.0,2.0,58,0.00,,,-99.99,Homeseer,2013-05-14 00:25:00,
2013-05-13 20:35:00,77.5,65.3,0.00,North,0,1.3,1.3,59,0.00,,,-99.99,Homeseer,2013-05-14 00:35:00,
2013-05-13 20:45:00,77.5,64.9,0.00,East,90,1.1,2.5,58,0.00,,,-99.99,Homeseer,2013-05-14 00:45:00,
2013-05-13 20:55:00,77.5,65.7,0.00,ESE,112,4.3,6.5,60,0.00,,,-99.99,Homeseer,2013-05-14 00:55:00,
2013-05-13 21:05:00,77.5,64.9,0.00,East,90,2.9,6.3,58,0.00,,,-99.99,Homeseer,2013-05-14 01:05:00,
2013-05-13 21:15:00,77.5,64.6,0.00,NNE,22,2.0,3.8,57,0.00,,,-99.99,Homeseer,2013-05-14 01:15:00,
2013-05-13 21:25:00,77.5,64.6,0.00,North,0,2.0,2.7,57,0.00,,,-99.99,Homeseer,2013-05-14 01:25:00,
2013-05-13 21:35:00,77.5,65.3,0.00,NNE,22,2.7,3.6,59,0.00,,,-99.99,Homeseer,2013-05-14 01:35:00,
2013-05-13 21:45:00,77.5,65.3,0.00,ENE,67,4.7,4.7,59,0.00,,,-99.99,Homeseer,2013-05-14 01:45:00,
2013-05-13 21:55:00,77.5,64.9,0.00,ESE,112,3.1,3.4,58,0.00,,,-99.99,Homeseer,2013-05-14 01:55:00,
2013-05-13 22:05:00,77.5,65.3,0.00,ENE,67,0.9,1.3,59,0.00,,,-99.99,Homeseer,2013-05-14 02:05:00,
2013-05-13 22:15:00,77.5,65.3,0.00,NNE,22,1.6,4.7,59,0.00,,,-99.99,Homeseer,2013-05-14 02:15:00,
2013-05-13 22:25:00,77.4,65.6,0.00,NNE,22,2.9,2.9,60,0.00,,,-99.99,Homeseer,2013-05-14 02:25:00,
2013-05-13 22:35:00,77.5,64.9,0.00,North,0,3.1,3.1,58,0.00,,,-99.99,Homeseer,2013-05-14 02:35:00,
2013-05-13 22:45:00,77.4,64.8,0.00,SE,135,3.1,3.8,58,0.00,,,-99.99,Homeseer,2013-05-14 02:45:00,
2013-05-13 22:55:00,77.4,65.2,0.00,NNE,22,2.9,3.6,59,0.00,,,-99.99,Homeseer,2013-05-14 02:55:00,
2013-05-13 23:05:00,77.5,64.9,0.00,ESE,112,2.2,0.0,58,0.00,,,-99.99,Homeseer,2013-05-14 03:05:00,
2013-05-13 23:15:00,77.7,64.7,0.00,NW,315,1.6,4.7,57,0.00,,,-99.99,Homeseer,2013-05-14 03:15:00,
2013-05-13 23:25:00,77.9,64.1,0.00,NNE,22,2.2,5.4,55,0.00,,,-99.99,Homeseer,2013-05-14 03:25:00,
2013-05-13 23:35:00,77.9,64.1,0.00,ESE,112,2.9,4.9,55,0.00,,,-99.99,Homeseer,2013-05-14 03:35:00,
2013-05-13 23:45:00,78.1,63.9,0.00,ESE,112,2.9,2.9,54,0.00,,,-99.99,Homeseer,2013-05-14 03:45:00,
2013-05-13 23:55:00,77.9,62.9,0.00,North,0,2.2,2.2,52,0.00,,,-99.99,Homeseer,2013-05-14 03:55:00,